sensor_id;sensor_type;location;lat;lon;timestamp;P1;durP1;ratioP1;P2;durP2;ratioP2
54269;SDS011;40181;51.560;13.000;2023-08-06T00:00:15;1.35;;;0.93;;
54269;SDS011;40181;51.560;13.000;2023-08-06T00:02:44;2.78;;;1.45;;
54269;SDS011;40181;51.560;13.000;2023-08-06T00:05:14;1.80;;;1.13;;
54269;SDS011;40181;51.560;13.000;2023-08-06T00:07:46;2.55;;;1.73;;
54269;SDS011;40181;51.560;13.000;2023-08-06T00:10:18;7.57;;;1.00;;
54269;SDS011;40181;51.560;13.000;2023-08-06T00:12:47;1.98;;;1.50;;
54269;SDS011;40181;51.560;13.000;2023-08-06T00:15:16;3.40;;;1.65;;
54269;SDS011;40181;51.560;13.000;2023-08-06T00:17:46;1.83;;;1.38;;
54269;SDS011;40181;51.560;13.000;2023-08-06T00:20:15;2.30;;;1.67;;
54269;SDS011;40181;51.560;13.000;2023-08-06T00:22:44;1.75;;;1.42;;
54269;SDS011;40181;51.560;13.000;2023-08-06T00:25:13;2.05;;;1.10;;
54269;SDS011;40181;51.560;13.000;2023-08-06T00:27:45;2.65;;;1.20;;
54269;SDS011;40181;51.560;13.000;2023-08-06T00:30:14;3.80;;;1.75;;
54269;SDS011;40181;51.560;13.000;2023-08-06T00:32:43;1.67;;;1.33;;
54269;SDS011;40181;51.560;13.000;2023-08-06T00:35:12;2.92;;;1.70;;
54269;SDS011;40181;51.560;13.000;2023-08-06T00:37:41;3.03;;;2.00;;
54269;SDS011;40181;51.560;13.000;2023-08-06T00:40:11;3.08;;;1.67;;
54269;SDS011;40181;51.560;13.000;2023-08-06T00:42:40;2.55;;;1.23;;
54269;SDS011;40181;51.560;13.000;2023-08-06T00:45:12;1.92;;;1.42;;
54269;SDS011;40181;51.560;13.000;2023-08-06T00:47:41;2.33;;;1.50;;
54269;SDS011;40181;51.560;13.000;2023-08-06T00:50:11;2.83;;;1.50;;
54269;SDS011;40181;51.560;13.000;2023-08-06T00:52:41;1.77;;;1.33;;
54269;SDS011;40181;51.560;13.000;2023-08-06T00:55:10;2.75;;;1.75;;
54269;SDS011;40181;51.560;13.000;2023-08-06T00:57:39;2.47;;;1.70;;
54269;SDS011;40181;51.560;13.000;2023-08-06T01:00:09;2.35;;;1.50;;
54269;SDS011;40181;51.560;13.000;2023-08-06T01:02:41;1.75;;;1.40;;
54269;SDS011;40181;51.560;13.000;2023-08-06T01:05:11;3.20;;;2.03;;
54269;SDS011;40181;51.560;13.000;2023-08-06T01:07:43;1.63;;;1.35;;
54269;SDS011;40181;51.560;13.000;2023-08-06T01:10:29;2.88;;;1.67;;
54269;SDS011;40181;51.560;13.000;2023-08-06T01:13:11;2.75;;;1.95;;
54269;SDS011;40181;51.560;13.000;2023-08-06T01:15:54;2.83;;;1.58;;
54269;SDS011;40181;51.560;13.000;2023-08-06T01:18:24;1.98;;;1.35;;
54269;SDS011;40181;51.560;13.000;2023-08-06T01:20:56;3.95;;;1.70;;
54269;SDS011;40181;51.560;13.000;2023-08-06T01:23:25;2.22;;;1.50;;
54269;SDS011;40181;51.560;13.000;2023-08-06T01:25:56;2.92;;;1.80;;
54269;SDS011;40181;51.560;13.000;2023-08-06T01:28:33;2.50;;;1.63;;
54269;SDS011;40181;51.560;13.000;2023-08-06T01:31:14;3.00;;;1.90;;
54269;SDS011;40181;51.560;13.000;2023-08-06T01:36:24;1.48;;;1.38;;
54269;SDS011;40181;51.560;13.000;2023-08-06T01:38:55;1.42;;;1.33;;
54269;SDS011;40181;51.560;13.000;2023-08-06T01:41:25;2.78;;;1.83;;
54269;SDS011;40181;51.560;13.000;2023-08-06T01:43:54;2.08;;;1.60;;
54269;SDS011;40181;51.560;13.000;2023-08-06T01:46:23;2.88;;;2.17;;
54269;SDS011;40181;51.560;13.000;2023-08-06T01:48:52;3.20;;;2.00;;
54269;SDS011;40181;51.560;13.000;2023-08-06T01:51:21;3.70;;;2.10;;
54269;SDS011;40181;51.560;13.000;2023-08-06T01:53:53;2.15;;;1.67;;
54269;SDS011;40181;51.560;13.000;2023-08-06T01:56:22;2.85;;;1.85;;
54269;SDS011;40181;51.560;13.000;2023-08-06T01:58:51;1.75;;;1.48;;
54269;SDS011;40181;51.560;13.000;2023-08-06T02:01:20;2.92;;;1.88;;
54269;SDS011;40181;51.560;13.000;2023-08-06T02:03:49;2.78;;;1.63;;
54269;SDS011;40181;51.560;13.000;2023-08-06T02:06:18;3.00;;;1.58;;
54269;SDS011;40181;51.560;13.000;2023-08-06T02:08:50;1.63;;;1.25;;
54269;SDS011;40181;51.560;13.000;2023-08-06T02:11:19;3.15;;;1.77;;
54269;SDS011;40181;51.560;13.000;2023-08-06T02:13:48;1.75;;;1.35;;
54269;SDS011;40181;51.560;13.000;2023-08-06T02:16:18;1.88;;;1.45;;
54269;SDS011;40181;51.560;13.000;2023-08-06T02:18:47;3.70;;;1.90;;
54269;SDS011;40181;51.560;13.000;2023-08-06T02:21:16;2.42;;;1.83;;
54269;SDS011;40181;51.560;13.000;2023-08-06T02:23:45;2.72;;;1.70;;
54269;SDS011;40181;51.560;13.000;2023-08-06T02:26:17;2.35;;;1.75;;
54269;SDS011;40181;51.560;13.000;2023-08-06T02:28:46;1.73;;;1.35;;
54269;SDS011;40181;51.560;13.000;2023-08-06T02:31:15;2.40;;;1.60;;
54269;SDS011;40181;51.560;13.000;2023-08-06T02:33:44;2.80;;;1.83;;
54269;SDS011;40181;51.560;13.000;2023-08-06T02:36:14;3.22;;;1.67;;
54269;SDS011;40181;51.560;13.000;2023-08-06T02:38:43;1.90;;;1.20;;
54269;SDS011;40181;51.560;13.000;2023-08-06T02:41:12;2.33;;;1.90;;
54269;SDS011;40181;51.560;13.000;2023-08-06T02:43:44;1.60;;;1.38;;
54269;SDS011;40181;51.560;13.000;2023-08-06T02:46:13;1.77;;;1.27;;
54269;SDS011;40181;51.560;13.000;2023-08-06T02:48:42;1.92;;;1.50;;
54269;SDS011;40181;51.560;13.000;2023-08-06T02:51:11;2.72;;;1.67;;
54269;SDS011;40181;51.560;13.000;2023-08-06T02:53:40;3.78;;;2.05;;
54269;SDS011;40181;51.560;13.000;2023-08-06T02:56:10;2.55;;;1.58;;
54269;SDS011;40181;51.560;13.000;2023-08-06T02:58:39;1.75;;;1.48;;
54269;SDS011;40181;51.560;13.000;2023-08-06T03:01:10;2.30;;;1.63;;
54269;SDS011;40181;51.560;13.000;2023-08-06T03:03:40;2.28;;;1.33;;
54269;SDS011;40181;51.560;13.000;2023-08-06T03:06:09;2.10;;;1.48;;
54269;SDS011;40181;51.560;13.000;2023-08-06T03:08:38;2.83;;;1.60;;
54269;SDS011;40181;51.560;13.000;2023-08-06T03:11:08;1.88;;;1.55;;
54269;SDS011;40181;51.560;13.000;2023-08-06T03:13:37;2.72;;;1.48;;
54269;SDS011;40181;51.560;13.000;2023-08-06T03:16:06;1.48;;;1.35;;
54269;SDS011;40181;51.560;13.000;2023-08-06T03:18:38;3.63;;;1.63;;
54269;SDS011;40181;51.560;13.000;2023-08-06T03:21:07;1.48;;;1.13;;
54269;SDS011;40181;51.560;13.000;2023-08-06T03:23:36;1.65;;;1.25;;
54269;SDS011;40181;51.560;13.000;2023-08-06T03:26:05;1.80;;;1.30;;
54269;SDS011;40181;51.560;13.000;2023-08-06T03:28:34;1.42;;;1.33;;
54269;SDS011;40181;51.560;13.000;2023-08-06T03:31:03;2.17;;;1.17;;
54269;SDS011;40181;51.560;13.000;2023-08-06T03:33:33;2.08;;;1.23;;
54269;SDS011;40181;51.560;13.000;2023-08-06T03:36:04;9.23;;;1.80;;
54269;SDS011;40181;51.560;13.000;2023-08-06T03:38:33;2.72;;;1.48;;
54269;SDS011;40181;51.560;13.000;2023-08-06T03:41:03;2.05;;;1.60;;
54269;SDS011;40181;51.560;13.000;2023-08-06T03:43:32;2.78;;;1.63;;
54269;SDS011;40181;51.560;13.000;2023-08-06T03:46:01;2.85;;;1.73;;
54269;SDS011;40181;51.560;13.000;2023-08-06T03:48:30;2.33;;;1.33;;
54269;SDS011;40181;51.560;13.000;2023-08-06T03:50:59;2.20;;;1.38;;
54269;SDS011;40181;51.560;13.000;2023-08-06T03:53:31;2.88;;;1.40;;
54269;SDS011;40181;51.560;13.000;2023-08-06T03:56:00;2.33;;;1.40;;
54269;SDS011;40181;51.560;13.000;2023-08-06T03:58:29;3.80;;;1.80;;
54269;SDS011;40181;51.560;13.000;2023-08-06T04:00:59;1.65;;;1.20;;
54269;SDS011;40181;51.560;13.000;2023-08-06T04:03:29;1.65;;;1.33;;
54269;SDS011;40181;51.560;13.000;2023-08-06T04:05:58;7.95;;;1.80;;
54269;SDS011;40181;51.560;13.000;2023-08-06T04:08:27;1.80;;;1.08;;
54269;SDS011;40181;51.560;13.000;2023-08-06T04:10:59;2.60;;;1.25;;
54269;SDS011;40181;51.560;13.000;2023-08-06T04:13:28;1.30;;;0.90;;
54269;SDS011;40181;51.560;13.000;2023-08-06T04:16:00;1.70;;;1.27;;
54269;SDS011;40181;51.560;13.000;2023-08-06T04:18:30;1.25;;;1.02;;
54269;SDS011;40181;51.560;13.000;2023-08-06T04:21:01;1.60;;;1.10;;
54269;SDS011;40181;51.560;13.000;2023-08-06T04:26:01;1.38;;;1.00;;
54269;SDS011;40181;51.560;13.000;2023-08-06T04:28:31;1.55;;;1.15;;
54269;SDS011;40181;51.560;13.000;2023-08-06T04:31:00;2.00;;;1.30;;
54269;SDS011;40181;51.560;13.000;2023-08-06T04:33:29;2.55;;;1.60;;
54269;SDS011;40181;51.560;13.000;2023-08-06T04:35:59;3.60;;;1.48;;
54269;SDS011;40181;51.560;13.000;2023-08-06T04:38:28;2.08;;;1.40;;
54269;SDS011;40181;51.560;13.000;2023-08-06T04:41:01;2.13;;;1.70;;
54269;SDS011;40181;51.560;13.000;2023-08-06T04:43:30;3.08;;;1.35;;
54269;SDS011;40181;51.560;13.000;2023-08-06T04:46:00;1.63;;;1.30;;
54269;SDS011;40181;51.560;13.000;2023-08-06T04:48:29;2.53;;;1.27;;
54269;SDS011;40181;51.560;13.000;2023-08-06T04:50:58;2.38;;;1.75;;
54269;SDS011;40181;51.560;13.000;2023-08-06T04:53:27;1.52;;;1.20;;
54269;SDS011;40181;51.560;13.000;2023-08-06T04:55:56;2.22;;;1.20;;
54269;SDS011;40181;51.560;13.000;2023-08-06T04:58:28;2.10;;;1.35;;
54269;SDS011;40181;51.560;13.000;2023-08-06T05:00:57;1.98;;;1.25;;
54269;SDS011;40181;51.560;13.000;2023-08-06T05:03:26;2.33;;;1.60;;
54269;SDS011;40181;51.560;13.000;2023-08-06T05:05:56;2.53;;;1.30;;
54269;SDS011;40181;51.560;13.000;2023-08-06T05:08:25;2.30;;;1.50;;
54269;SDS011;40181;51.560;13.000;2023-08-06T05:10:54;1.83;;;1.30;;
54269;SDS011;40181;51.560;13.000;2023-08-06T05:13:26;2.50;;;1.33;;
54269;SDS011;40181;51.560;13.000;2023-08-06T05:15:55;1.80;;;1.30;;
54269;SDS011;40181;51.560;13.000;2023-08-06T05:18:24;4.05;;;1.65;;
54269;SDS011;40181;51.560;13.000;2023-08-06T05:20:53;2.20;;;1.23;;
54269;SDS011;40181;51.560;13.000;2023-08-06T05:23:23;2.58;;;1.88;;
54269;SDS011;40181;51.560;13.000;2023-08-06T05:25:52;3.55;;;1.80;;
54269;SDS011;40181;51.560;13.000;2023-08-06T05:28:21;1.38;;;1.27;;
54269;SDS011;40181;51.560;13.000;2023-08-06T05:30:53;1.83;;;1.48;;
54269;SDS011;40181;51.560;13.000;2023-08-06T05:33:22;5.45;;;1.58;;
54269;SDS011;40181;51.560;13.000;2023-08-06T05:35:51;2.05;;;1.52;;
54269;SDS011;40181;51.560;13.000;2023-08-06T05:38:20;2.55;;;1.75;;
54269;SDS011;40181;51.560;13.000;2023-08-06T05:40:49;2.05;;;1.40;;
54269;SDS011;40181;51.560;13.000;2023-08-06T05:43:19;2.42;;;1.55;;
54269;SDS011;40181;51.560;13.000;2023-08-06T05:45:49;1.88;;;1.38;;
54269;SDS011;40181;51.560;13.000;2023-08-06T05:48:21;0.80;;;0.80;;
54269;SDS011;40181;51.560;13.000;2023-08-06T05:50:51;1.15;;;0.95;;
54269;SDS011;40181;51.560;13.000;2023-08-06T05:53:20;1.42;;;0.95;;
54269;SDS011;40181;51.560;13.000;2023-08-06T05:55:49;2.25;;;1.52;;
54269;SDS011;40181;51.560;13.000;2023-08-06T05:58:19;1.40;;;1.17;;
54269;SDS011;40181;51.560;13.000;2023-08-06T06:00:53;2.03;;;1.35;;
54269;SDS011;40181;51.560;13.000;2023-08-06T06:03:22;2.53;;;1.63;;
54269;SDS011;40181;51.560;13.000;2023-08-06T06:05:51;3.00;;;1.50;;
54269;SDS011;40181;51.560;13.000;2023-08-06T06:08:21;1.67;;;1.30;;
54269;SDS011;40181;51.560;13.000;2023-08-06T06:10:50;2.22;;;1.40;;
54269;SDS011;40181;51.560;13.000;2023-08-06T06:13:19;1.50;;;1.17;;
54269;SDS011;40181;51.560;13.000;2023-08-06T06:15:48;2.78;;;1.35;;
54269;SDS011;40181;51.560;13.000;2023-08-06T06:18:20;1.95;;;1.42;;
54269;SDS011;40181;51.560;13.000;2023-08-06T06:20:49;1.50;;;1.17;;
54269;SDS011;40181;51.560;13.000;2023-08-06T06:23:18;1.65;;;1.35;;
54269;SDS011;40181;51.560;13.000;2023-08-06T06:25:48;2.05;;;1.52;;
54269;SDS011;40181;51.560;13.000;2023-08-06T06:28:18;1.23;;;1.10;;
54269;SDS011;40181;51.560;13.000;2023-08-06T06:30:47;2.33;;;1.05;;
54269;SDS011;40181;51.560;13.000;2023-08-06T06:33:16;1.70;;;1.52;;
54269;SDS011;40181;51.560;13.000;2023-08-06T06:35:48;1.83;;;1.17;;
54269;SDS011;40181;51.560;13.000;2023-08-06T06:38:17;1.75;;;1.20;;
54269;SDS011;40181;51.560;13.000;2023-08-06T06:40:53;1.48;;;1.02;;
54269;SDS011;40181;51.560;13.000;2023-08-06T06:43:22;1.65;;;1.17;;
54269;SDS011;40181;51.560;13.000;2023-08-06T06:45:52;2.85;;;1.85;;
54269;SDS011;40181;51.560;13.000;2023-08-06T06:48:24;1.38;;;1.20;;
54269;SDS011;40181;51.560;13.000;2023-08-06T06:50:54;2.00;;;1.05;;
54269;SDS011;40181;51.560;13.000;2023-08-06T06:53:24;2.72;;;1.77;;
54269;SDS011;40181;51.560;13.000;2023-08-06T06:55:55;3.88;;;1.55;;
54269;SDS011;40181;51.560;13.000;2023-08-06T06:58:29;1.38;;;1.00;;
54269;SDS011;40181;51.560;13.000;2023-08-06T07:00:58;2.35;;;1.40;;
54269;SDS011;40181;51.560;13.000;2023-08-06T07:03:30;3.15;;;1.30;;
54269;SDS011;40181;51.560;13.000;2023-08-06T07:05:59;1.90;;;1.38;;
54269;SDS011;40181;51.560;13.000;2023-08-06T07:08:28;1.83;;;1.25;;
54269;SDS011;40181;51.560;13.000;2023-08-06T07:11:01;1.75;;;1.08;;
54269;SDS011;40181;51.560;13.000;2023-08-06T07:13:31;2.55;;;1.20;;
54269;SDS011;40181;51.560;13.000;2023-08-06T07:16:01;1.70;;;1.38;;
54269;SDS011;40181;51.560;13.000;2023-08-06T07:18:33;1.90;;;1.33;;
54269;SDS011;40181;51.560;13.000;2023-08-06T07:21:02;2.75;;;1.73;;
54269;SDS011;40181;51.560;13.000;2023-08-06T07:23:32;1.73;;;1.63;;
54269;SDS011;40181;51.560;13.000;2023-08-06T07:26:01;2.67;;;1.33;;
54269;SDS011;40181;51.560;13.000;2023-08-06T07:28:30;2.35;;;1.90;;
54269;SDS011;40181;51.560;13.000;2023-08-06T07:30:59;2.50;;;1.38;;
54269;SDS011;40181;51.560;13.000;2023-08-06T07:33:30;7.55;;;1.63;;
54269;SDS011;40181;51.560;13.000;2023-08-06T07:36:07;2.33;;;1.63;;
54269;SDS011;40181;51.560;13.000;2023-08-06T07:38:44;3.92;;;2.50;;
54269;SDS011;40181;51.560;13.000;2023-08-06T07:41:36;2.03;;;1.77;;
54269;SDS011;40181;51.560;13.000;2023-08-06T07:44:06;2.25;;;1.85;;
54269;SDS011;40181;51.560;13.000;2023-08-06T07:46:35;4.22;;;1.98;;
54269;SDS011;40181;51.560;13.000;2023-08-06T07:49:07;3.88;;;2.17;;
54269;SDS011;40181;51.560;13.000;2023-08-06T07:51:38;7.63;;;2.78;;
54269;SDS011;40181;51.560;13.000;2023-08-06T07:54:07;5.05;;;3.00;;
54269;SDS011;40181;51.560;13.000;2023-08-06T07:56:37;4.10;;;2.90;;
54269;SDS011;40181;51.560;13.000;2023-08-06T07:59:06;3.22;;;2.75;;
54269;SDS011;40181;51.560;13.000;2023-08-06T08:01:35;2.83;;;2.05;;
54269;SDS011;40181;51.560;13.000;2023-08-06T08:04:07;2.92;;;2.38;;
54269;SDS011;40181;51.560;13.000;2023-08-06T08:06:36;2.22;;;2.03;;
54269;SDS011;40181;51.560;13.000;2023-08-06T08:09:05;1.95;;;1.70;;
54269;SDS011;40181;51.560;13.000;2023-08-06T08:11:34;2.97;;;2.45;;
54269;SDS011;40181;51.560;13.000;2023-08-06T08:14:03;4.20;;;2.17;;
54269;SDS011;40181;51.560;13.000;2023-08-06T08:16:32;2.90;;;2.55;;
54269;SDS011;40181;51.560;13.000;2023-08-06T08:19:02;3.88;;;2.53;;
54269;SDS011;40181;51.560;13.000;2023-08-06T08:21:33;3.53;;;2.72;;
54269;SDS011;40181;51.560;13.000;2023-08-06T08:24:03;5.93;;;3.55;;
54269;SDS011;40181;51.560;13.000;2023-08-06T08:26:33;4.95;;;2.92;;
54269;SDS011;40181;51.560;13.000;2023-08-06T08:29:02;4.68;;;3.22;;
54269;SDS011;40181;51.560;13.000;2023-08-06T08:31:31;7.32;;;3.50;;
54269;SDS011;40181;51.560;13.000;2023-08-06T08:34:04;4.78;;;3.17;;
54269;SDS011;40181;51.560;13.000;2023-08-06T08:36:36;4.07;;;3.10;;
54269;SDS011;40181;51.560;13.000;2023-08-06T08:39:05;5.05;;;3.33;;
54269;SDS011;40181;51.560;13.000;2023-08-06T08:41:36;4.43;;;2.63;;
54269;SDS011;40181;51.560;13.000;2023-08-06T08:44:08;6.55;;;2.70;;
54269;SDS011;40181;51.560;13.000;2023-08-06T08:46:38;5.25;;;3.47;;
54269;SDS011;40181;51.560;13.000;2023-08-06T08:49:09;4.13;;;2.95;;
54269;SDS011;40181;51.560;13.000;2023-08-06T08:51:42;4.85;;;2.65;;
54269;SDS011;40181;51.560;13.000;2023-08-06T08:54:14;3.85;;;2.60;;
54269;SDS011;40181;51.560;13.000;2023-08-06T08:56:45;4.05;;;3.03;;
54269;SDS011;40181;51.560;13.000;2023-08-06T08:59:14;5.82;;;2.95;;
54269;SDS011;40181;51.560;13.000;2023-08-06T09:01:43;3.80;;;2.88;;
54269;SDS011;40181;51.560;13.000;2023-08-06T09:04:18;4.32;;;3.17;;
54269;SDS011;40181;51.560;13.000;2023-08-06T09:06:50;5.32;;;2.60;;
54269;SDS011;40181;51.560;13.000;2023-08-06T09:09:21;4.03;;;2.60;;
54269;SDS011;40181;51.560;13.000;2023-08-06T09:11:54;3.63;;;2.60;;
54269;SDS011;40181;51.560;13.000;2023-08-06T09:14:29;3.40;;;2.17;;
54269;SDS011;40181;51.560;13.000;2023-08-06T09:16:58;4.07;;;2.47;;
54269;SDS011;40181;51.560;13.000;2023-08-06T09:22:04;3.83;;;2.85;;
54269;SDS011;40181;51.560;13.000;2023-08-06T09:24:38;5.50;;;3.63;;
54269;SDS011;40181;51.560;13.000;2023-08-06T09:27:10;3.53;;;3.13;;
54269;SDS011;40181;51.560;13.000;2023-08-06T09:29:41;4.07;;;3.13;;
54269;SDS011;40181;51.560;13.000;2023-08-06T09:32:11;5.45;;;3.20;;
54269;SDS011;40181;51.560;13.000;2023-08-06T09:34:41;4.00;;;2.90;;
54269;SDS011;40181;51.560;13.000;2023-08-06T09:37:13;3.30;;;2.90;;
54269;SDS011;40181;51.560;13.000;2023-08-06T09:39:42;3.95;;;2.92;;
54269;SDS011;40181;51.560;13.000;2023-08-06T09:42:14;5.88;;;3.30;;
54269;SDS011;40181;51.560;13.000;2023-08-06T09:44:44;5.50;;;3.17;;
54269;SDS011;40181;51.560;13.000;2023-08-06T09:47:13;5.82;;;3.15;;
54269;SDS011;40181;51.560;13.000;2023-08-06T09:49:48;4.63;;;3.10;;
54269;SDS011;40181;51.560;13.000;2023-08-06T09:52:19;3.58;;;3.13;;
54269;SDS011;40181;51.560;13.000;2023-08-06T09:54:49;3.72;;;2.55;;
54269;SDS011;40181;51.560;13.000;2023-08-06T09:59:49;2.78;;;2.13;;
54269;SDS011;40181;51.560;13.000;2023-08-06T10:02:20;3.15;;;2.45;;
54269;SDS011;40181;51.560;13.000;2023-08-06T10:04:55;2.75;;;2.25;;
54269;SDS011;40181;51.560;13.000;2023-08-06T10:07:28;2.97;;;2.38;;
54269;SDS011;40181;51.560;13.000;2023-08-06T10:09:58;4.03;;;2.95;;
54269;SDS011;40181;51.560;13.000;2023-08-06T10:12:28;3.70;;;2.80;;
54269;SDS011;40181;51.560;13.000;2023-08-06T10:15:03;4.53;;;3.13;;
54269;SDS011;40181;51.560;13.000;2023-08-06T10:17:37;3.50;;;2.50;;
54269;SDS011;40181;51.560;13.000;2023-08-06T10:22:41;2.22;;;1.88;;
54269;SDS011;40181;51.560;13.000;2023-08-06T10:25:15;4.38;;;3.28;;
54269;SDS011;40181;51.560;13.000;2023-08-06T10:27:53;4.82;;;2.85;;
54269;SDS011;40181;51.560;13.000;2023-08-06T10:30:23;3.13;;;2.42;;
54269;SDS011;40181;51.560;13.000;2023-08-06T10:32:54;6.15;;;2.90;;
54269;SDS011;40181;51.560;13.000;2023-08-06T10:35:33;2.13;;;1.88;;
54269;SDS011;40181;51.560;13.000;2023-08-06T10:38:08;2.70;;;2.00;;
54269;SDS011;40181;51.560;13.000;2023-08-06T10:40:39;3.97;;;2.50;;
54269;SDS011;40181;51.560;13.000;2023-08-06T10:43:24;3.75;;;2.72;;
54269;SDS011;40181;51.560;13.000;2023-08-06T10:45:55;4.85;;;2.92;;
54269;SDS011;40181;51.560;13.000;2023-08-06T10:48:29;4.35;;;2.78;;
54269;SDS011;40181;51.560;13.000;2023-08-06T10:51:01;4.05;;;3.50;;
54269;SDS011;40181;51.560;13.000;2023-08-06T10:53:34;2.97;;;2.67;;
54269;SDS011;40181;51.560;13.000;2023-08-06T10:56:11;5.72;;;3.03;;
54269;SDS011;40181;51.560;13.000;2023-08-06T10:58:41;5.10;;;3.55;;
54269;SDS011;40181;51.560;13.000;2023-08-06T11:01:12;3.55;;;2.50;;
54269;SDS011;40181;51.560;13.000;2023-08-06T11:03:41;4.35;;;2.85;;
54269;SDS011;40181;51.560;13.000;2023-08-06T11:06:16;3.13;;;2.50;;
54269;SDS011;40181;51.560;13.000;2023-08-06T11:08:49;2.97;;;2.20;;
54269;SDS011;40181;51.560;13.000;2023-08-06T11:11:21;3.38;;;2.30;;
54269;SDS011;40181;51.560;13.000;2023-08-06T11:13:51;3.60;;;2.53;;
54269;SDS011;40181;51.560;13.000;2023-08-06T11:16:22;4.25;;;2.75;;
54269;SDS011;40181;51.560;13.000;2023-08-06T11:18:52;2.72;;;1.83;;
54269;SDS011;40181;51.560;13.000;2023-08-06T11:21:22;1.83;;;1.60;;
54269;SDS011;40181;51.560;13.000;2023-08-06T11:23:55;2.00;;;1.67;;
54269;SDS011;40181;51.560;13.000;2023-08-06T11:26:24;2.00;;;1.52;;
54269;SDS011;40181;51.560;13.000;2023-08-06T11:28:54;2.58;;;2.03;;
54269;SDS011;40181;51.560;13.000;2023-08-06T11:31:23;1.55;;;1.33;;
54269;SDS011;40181;51.560;13.000;2023-08-06T11:33:52;1.65;;;1.00;;
54269;SDS011;40181;51.560;13.000;2023-08-06T11:36:29;1.80;;;1.20;;
54269;SDS011;40181;51.560;13.000;2023-08-06T11:39:01;2.25;;;1.67;;
54269;SDS011;40181;51.560;13.000;2023-08-06T11:41:33;2.35;;;1.98;;
54269;SDS011;40181;51.560;13.000;2023-08-06T11:44:04;2.33;;;1.80;;
54269;SDS011;40181;51.560;13.000;2023-08-06T11:52:16;1.80;;;1.55;;
54269;SDS011;40181;51.560;13.000;2023-08-06T11:54:59;3.33;;;2.45;;
54269;SDS011;40181;51.560;13.000;2023-08-06T11:57:32;1.50;;;1.38;;
54269;SDS011;40181;51.560;13.000;2023-08-06T12:00:02;1.27;;;1.10;;
54269;SDS011;40181;51.560;13.000;2023-08-06T12:02:33;1.77;;;1.23;;
54269;SDS011;40181;51.560;13.000;2023-08-06T12:05:04;2.42;;;1.27;;
54269;SDS011;40181;51.560;13.000;2023-08-06T12:07:40;1.48;;;1.30;;
54269;SDS011;40181;51.560;13.000;2023-08-06T12:10:13;1.70;;;1.52;;
54269;SDS011;40181;51.560;13.000;2023-08-06T12:12:44;1.65;;;1.15;;
54269;SDS011;40181;51.560;13.000;2023-08-06T12:15:15;2.13;;;1.20;;
54269;SDS011;40181;51.560;13.000;2023-08-06T12:17:45;1.73;;;1.27;;
54269;SDS011;40181;51.560;13.000;2023-08-06T12:20:14;1.50;;;1.23;;
54269;SDS011;40181;51.560;13.000;2023-08-06T12:22:43;2.25;;;1.38;;
54269;SDS011;40181;51.560;13.000;2023-08-06T12:25:15;1.20;;;1.10;;
54269;SDS011;40181;51.560;13.000;2023-08-06T12:27:46;2.13;;;1.60;;
54269;SDS011;40181;51.560;13.000;2023-08-06T12:30:15;2.20;;;1.20;;
54269;SDS011;40181;51.560;13.000;2023-08-06T12:32:44;2.55;;;1.77;;
54269;SDS011;40181;51.560;13.000;2023-08-06T12:35:13;2.95;;;1.95;;
54269;SDS011;40181;51.560;13.000;2023-08-06T12:37:42;1.95;;;1.30;;
54269;SDS011;40181;51.560;13.000;2023-08-06T12:40:11;1.40;;;1.30;;
54269;SDS011;40181;51.560;13.000;2023-08-06T12:42:43;2.22;;;1.33;;
54269;SDS011;40181;51.560;13.000;2023-08-06T12:45:14;2.75;;;1.50;;
54269;SDS011;40181;51.560;13.000;2023-08-06T12:47:46;2.15;;;1.23;;
54269;SDS011;40181;51.560;13.000;2023-08-06T12:50:15;2.47;;;1.30;;
54269;SDS011;40181;51.560;13.000;2023-08-06T12:52:44;2.28;;;1.83;;
54269;SDS011;40181;51.560;13.000;2023-08-06T12:55:16;1.48;;;1.20;;
54269;SDS011;40181;51.560;13.000;2023-08-06T12:57:46;1.65;;;1.10;;
54269;SDS011;40181;51.560;13.000;2023-08-06T13:00:15;2.45;;;1.55;;
54269;SDS011;40181;51.560;13.000;2023-08-06T13:02:44;3.15;;;1.35;;
54269;SDS011;40181;51.560;13.000;2023-08-06T13:05:13;2.33;;;1.25;;
54269;SDS011;40181;51.560;13.000;2023-08-06T13:07:42;1.98;;;1.20;;
54269;SDS011;40181;51.560;13.000;2023-08-06T13:10:11;2.05;;;1.40;;
54269;SDS011;40181;51.560;13.000;2023-08-06T13:12:43;1.45;;;1.17;;
54269;SDS011;40181;51.560;13.000;2023-08-06T13:15:13;2.03;;;1.25;;
54269;SDS011;40181;51.560;13.000;2023-08-06T13:17:42;1.45;;;0.80;;
54269;SDS011;40181;51.560;13.000;2023-08-06T13:20:11;0.98;;;0.75;;
54269;SDS011;40181;51.560;13.000;2023-08-06T13:22:40;1.63;;;0.80;;
54269;SDS011;40181;51.560;13.000;2023-08-06T13:25:11;1.70;;;1.17;;
54269;SDS011;40181;51.560;13.000;2023-08-06T13:27:44;2.10;;;1.35;;
54269;SDS011;40181;51.560;13.000;2023-08-06T13:30:13;1.52;;;1.10;;
54269;SDS011;40181;51.560;13.000;2023-08-06T13:32:43;11.82;;;1.45;;
54269;SDS011;40181;51.560;13.000;2023-08-06T13:35:12;2.13;;;1.17;;
54269;SDS011;40181;51.560;13.000;2023-08-06T13:37:41;1.30;;;1.00;;
54269;SDS011;40181;51.560;13.000;2023-08-06T13:40:11;1.63;;;1.00;;
54269;SDS011;40181;51.560;13.000;2023-08-06T13:42:40;1.42;;;0.88;;
54269;SDS011;40181;51.560;13.000;2023-08-06T13:45:12;1.55;;;1.10;;
54269;SDS011;40181;51.560;13.000;2023-08-06T13:47:41;1.52;;;0.98;;
54269;SDS011;40181;51.560;13.000;2023-08-06T13:50:10;1.67;;;1.00;;
54269;SDS011;40181;51.560;13.000;2023-08-06T13:52:40;1.30;;;1.08;;
54269;SDS011;40181;51.560;13.000;2023-08-06T13:55:09;3.55;;;1.50;;
54269;SDS011;40181;51.560;13.000;2023-08-06T13:57:38;1.60;;;1.00;;
54269;SDS011;40181;51.560;13.000;2023-08-06T14:00:11;1.55;;;1.10;;
54269;SDS011;40181;51.560;13.000;2023-08-06T14:02:41;1.13;;;0.90;;
54269;SDS011;40181;51.560;13.000;2023-08-06T14:05:11;1.10;;;0.77;;
54269;SDS011;40181;51.560;13.000;2023-08-06T14:07:40;1.25;;;0.80;;
54269;SDS011;40181;51.560;13.000;2023-08-06T14:10:09;0.82;;;0.73;;
54269;SDS011;40181;51.560;13.000;2023-08-06T14:12:39;0.50;;;0.50;;
54269;SDS011;40181;51.560;13.000;2023-08-06T14:15:11;1.05;;;0.82;;
54269;SDS011;40181;51.560;13.000;2023-08-06T14:17:41;0.95;;;0.80;;
54269;SDS011;40181;51.560;13.000;2023-08-06T14:20:10;1.95;;;1.30;;
54269;SDS011;40181;51.560;13.000;2023-08-06T14:22:40;1.23;;;0.93;;
54269;SDS011;40181;51.560;13.000;2023-08-06T14:25:09;2.92;;;1.10;;
54269;SDS011;40181;51.560;13.000;2023-08-06T14:27:38;2.17;;;1.40;;
54269;SDS011;40181;51.560;13.000;2023-08-06T14:30:08;0.57;;;0.50;;
54269;SDS011;40181;51.560;13.000;2023-08-06T14:32:40;2.08;;;1.30;;
54269;SDS011;40181;51.560;13.000;2023-08-06T14:35:09;1.85;;;1.48;;
54269;SDS011;40181;51.560;13.000;2023-08-06T14:37:39;8.55;;;1.70;;
54269;SDS011;40181;51.560;13.000;2023-08-06T14:40:10;2.35;;;1.50;;
54269;SDS011;40181;51.560;13.000;2023-08-06T14:42:40;1.60;;;1.33;;
54269;SDS011;40181;51.560;13.000;2023-08-06T14:45:12;1.42;;;1.20;;
54269;SDS011;40181;51.560;13.000;2023-08-06T14:47:41;2.53;;;1.50;;
54269;SDS011;40181;51.560;13.000;2023-08-06T14:50:11;3.20;;;1.10;;
54269;SDS011;40181;51.560;13.000;2023-08-06T14:52:40;2.08;;;1.05;;
54269;SDS011;40181;51.560;13.000;2023-08-06T14:55:09;1.73;;;1.15;;
54269;SDS011;40181;51.560;13.000;2023-08-06T14:57:38;1.58;;;1.10;;
54269;SDS011;40181;51.560;13.000;2023-08-06T15:00:08;2.20;;;1.30;;
54269;SDS011;40181;51.560;13.000;2023-08-06T15:02:40;1.70;;;0.90;;
54269;SDS011;40181;51.560;13.000;2023-08-06T15:05:10;1.95;;;1.42;;
54269;SDS011;40181;51.560;13.000;2023-08-06T15:07:39;4.82;;;1.75;;
54269;SDS011;40181;51.560;13.000;2023-08-06T15:10:08;3.15;;;1.45;;